sensor_id;sensor_type;location;lat;lon;timestamp;P1;durP1;ratioP1;P2;durP2;ratioP2
40453;SDS011;26160;51.858;4.398;2023-04-02T00:01:54;15.27;;;10.10;;
40453;SDS011;26160;51.858;4.398;2023-04-02T00:04:14;15.48;;;11.13;;
40453;SDS011;26160;51.858;4.398;2023-04-02T00:06:56;15.07;;;11.13;;
40453;SDS011;26160;51.858;4.398;2023-04-02T00:09:55;18.20;;;11.57;;
40453;SDS011;26160;51.858;4.398;2023-04-02T00:12:22;18.33;;;11.47;;
40453;SDS011;26160;51.858;4.398;2023-04-02T00:14:51;18.70;;;12.10;;
40453;SDS011;26160;51.858;4.398;2023-04-02T00:17:20;15.77;;;12.13;;
40453;SDS011;26160;51.858;4.398;2023-04-02T00:20:02;17.33;;;11.93;;
40453;SDS011;26160;51.858;4.398;2023-04-02T00:22:31;17.25;;;12.52;;
40453;SDS011;26160;51.858;4.398;2023-04-02T00:24:59;19.13;;;12.20;;
40453;SDS011;26160;51.858;4.398;2023-04-02T00:27:29;20.77;;;12.97;;
40453;SDS011;26160;51.858;4.398;2023-04-02T00:29:56;20.87;;;13.03;;
40453;SDS011;26160;51.858;4.398;2023-04-02T00:32:24;19.67;;;13.40;;
40453;SDS011;26160;51.858;4.398;2023-04-02T00:34:53;19.53;;;12.63;;
40453;SDS011;26160;51.858;4.398;2023-04-02T00:37:21;18.90;;;12.20;;
40453;SDS011;26160;51.858;4.398;2023-04-02T00:40:01;20.00;;;12.48;;
40453;SDS011;26160;51.858;4.398;2023-04-02T00:42:33;18.67;;;12.43;;
40453;SDS011;26160;51.858;4.398;2023-04-02T00:45:00;20.67;;;11.70;;
40453;SDS011;26160;51.858;4.398;2023-04-02T00:47:31;17.37;;;11.53;;
40453;SDS011;26160;51.858;4.398;2023-04-02T00:52:40;21.10;;;12.83;;
40453;SDS011;26160;51.858;4.398;2023-04-02T00:57:47;19.20;;;11.97;;
40453;SDS011;26160;51.858;4.398;2023-04-02T01:06:27;21.60;;;13.23;;
40453;SDS011;26160;51.858;4.398;2023-04-02T01:24:46;19.60;;;11.83;;
40453;SDS011;26160;51.858;4.398;2023-04-02T01:27:15;19.37;;;12.73;;
40453;SDS011;26160;51.858;4.398;2023-04-02T01:30:04;15.27;;;10.93;;
40453;SDS011;26160;51.858;4.398;2023-04-02T01:32:31;17.67;;;11.47;;
40453;SDS011;26160;51.858;4.398;2023-04-02T01:34:58;15.77;;;11.10;;
40453;SDS011;26160;51.858;4.398;2023-04-02T01:45:56;15.75;;;10.73;;
40453;SDS011;26160;51.858;4.398;2023-04-02T01:48:23;19.17;;;11.30;;
40453;SDS011;26160;51.858;4.398;2023-04-02T01:50:54;16.87;;;11.67;;
40453;SDS011;26160;51.858;4.398;2023-04-02T01:53:24;17.53;;;10.93;;
40453;SDS011;26160;51.858;4.398;2023-04-02T01:55:55;15.07;;;10.20;;
40453;SDS011;26160;51.858;4.398;2023-04-02T01:58:25;19.23;;;10.70;;
40453;SDS011;26160;51.858;4.398;2023-04-02T02:01:03;14.95;;;10.40;;
40453;SDS011;26160;51.858;4.398;2023-04-02T02:03:31;15.33;;;9.77;;
40453;SDS011;26160;51.858;4.398;2023-04-02T02:05:58;16.33;;;10.07;;
40453;SDS011;26160;51.858;4.398;2023-04-02T02:11:02;13.50;;;9.93;;
40453;SDS011;26160;51.858;4.398;2023-04-02T02:13:29;17.17;;;9.47;;
40453;SDS011;26160;51.858;4.398;2023-04-02T02:15:57;15.93;;;9.80;;
40453;SDS011;26160;51.858;4.398;2023-04-02T02:18:24;13.10;;;9.03;;
40453;SDS011;26160;51.858;4.398;2023-04-02T02:20:52;16.07;;;9.83;;
40453;SDS011;26160;51.858;4.398;2023-04-02T02:23:20;15.73;;;9.77;;
40453;SDS011;26160;51.858;4.398;2023-04-02T02:25:47;17.23;;;10.60;;
40453;SDS011;26160;51.858;4.398;2023-04-02T02:28:20;18.47;;;10.97;;
40453;SDS011;26160;51.858;4.398;2023-04-02T02:30:56;14.93;;;9.83;;
40453;SDS011;26160;51.858;4.398;2023-04-02T02:35:58;14.50;;;10.07;;
40453;SDS011;26160;51.858;4.398;2023-04-02T02:41:24;16.73;;;9.57;;
40453;SDS011;26160;51.858;4.398;2023-04-02T02:44:04;18.87;;;9.77;;
40453;SDS011;26160;51.858;4.398;2023-04-02T02:46:35;12.37;;;8.87;;
40453;SDS011;26160;51.858;4.398;2023-04-02T02:49:04;14.87;;;9.37;;
40453;SDS011;26160;51.858;4.398;2023-04-02T02:51:39;13.60;;;8.63;;
40453;SDS011;26160;51.858;4.398;2023-04-02T02:54:09;11.53;;;8.63;;
40453;SDS011;26160;51.858;4.398;2023-04-02T02:56:37;16.23;;;8.90;;
40453;SDS011;26160;51.858;4.398;2023-04-02T02:59:10;13.30;;;8.63;;
40453;SDS011;26160;51.858;4.398;2023-04-02T03:01:39;11.33;;;8.00;;
40453;SDS011;26160;51.858;4.398;2023-04-02T03:04:07;11.10;;;7.83;;
40453;SDS011;26160;51.858;4.398;2023-04-02T03:06:33;13.40;;;7.63;;
40453;SDS011;26160;51.858;4.398;2023-04-02T03:14:35;10.60;;;7.67;;
40453;SDS011;26160;51.858;4.398;2023-04-02T03:17:19;13.73;;;8.37;;
40453;SDS011;26160;51.858;4.398;2023-04-02T03:19:54;12.80;;;9.10;;
40453;SDS011;26160;51.858;4.398;2023-04-02T03:22:37;12.30;;;8.30;;
40453;SDS011;26160;51.858;4.398;2023-04-02T03:27:55;10.90;;;8.53;;
40453;SDS011;26160;51.858;4.398;2023-04-02T03:30:32;11.13;;;8.27;;
40453;SDS011;26160;51.858;4.398;2023-04-02T03:33:18;15.57;;;9.23;;
40453;SDS011;26160;51.858;4.398;2023-04-02T03:36:32;12.33;;;8.80;;
40453;SDS011;26160;51.858;4.398;2023-04-02T03:38:46;11.17;;;7.77;;
40453;SDS011;26160;51.858;4.398;2023-04-02T03:41:33;11.70;;;8.27;;
40453;SDS011;26160;51.858;4.398;2023-04-02T03:44:10;13.00;;;8.17;;
40453;SDS011;26160;51.858;4.398;2023-04-02T03:46:44;15.87;;;8.57;;
40453;SDS011;26160;51.858;4.398;2023-04-02T03:49:22;14.93;;;8.93;;
40453;SDS011;26160;51.858;4.398;2023-04-02T03:51:56;13.80;;;8.33;;
40453;SDS011;26160;51.858;4.398;2023-04-02T03:54:29;10.87;;;8.40;;
40453;SDS011;26160;51.858;4.398;2023-04-02T03:56:56;14.97;;;9.97;;
40453;SDS011;26160;51.858;4.398;2023-04-02T03:59:27;11.73;;;8.97;;
40453;SDS011;26160;51.858;4.398;2023-04-02T04:02:11;13.17;;;9.27;;
40453;SDS011;26160;51.858;4.398;2023-04-02T04:04:44;9.93;;;8.10;;
40453;SDS011;26160;51.858;4.398;2023-04-02T04:10:13;16.23;;;9.83;;
40453;SDS011;26160;51.858;4.398;2023-04-02T04:12:44;13.23;;;8.83;;
40453;SDS011;26160;51.858;4.398;2023-04-02T04:15:14;13.67;;;9.13;;
40453;SDS011;26160;51.858;4.398;2023-04-02T04:17:50;14.00;;;9.00;;
40453;SDS011;26160;51.858;4.398;2023-04-02T04:22:50;13.40;;;8.10;;
40453;SDS011;26160;51.858;4.398;2023-04-02T04:25:27;12.87;;;8.40;;
40453;SDS011;26160;51.858;4.398;2023-04-02T04:33:32;15.17;;;9.00;;
40453;SDS011;26160;51.858;4.398;2023-04-02T04:36:05;12.20;;;8.47;;
40453;SDS011;26160;51.858;4.398;2023-04-02T04:38:46;14.73;;;8.80;;
40453;SDS011;26160;51.858;4.398;2023-04-02T04:41:20;13.13;;;9.10;;
40453;SDS011;26160;51.858;4.398;2023-04-02T04:43:51;10.00;;;7.73;;
40453;SDS011;26160;51.858;4.398;2023-04-02T04:46:26;14.17;;;8.97;;
40453;SDS011;26160;51.858;4.398;2023-04-02T04:51:55;16.37;;;9.37;;
40453;SDS011;26160;51.858;4.398;2023-04-02T04:54:26;16.70;;;10.33;;
40453;SDS011;26160;51.858;4.398;2023-04-02T04:57:02;11.47;;;9.13;;
40453;SDS011;26160;51.858;4.398;2023-04-02T04:59:31;14.60;;;9.57;;
40453;SDS011;26160;51.858;4.398;2023-04-02T05:02:05;19.13;;;10.43;;
40453;SDS011;26160;51.858;4.398;2023-04-02T05:04:43;12.00;;;8.97;;
40453;SDS011;26160;51.858;4.398;2023-04-02T05:07:20;13.00;;;9.63;;
40453;SDS011;26160;51.858;4.398;2023-04-02T05:09:55;12.60;;;9.03;;
40453;SDS011;26160;51.858;4.398;2023-04-02T05:12:47;15.80;;;9.23;;
40453;SDS011;26160;51.858;4.398;2023-04-02T05:15:40;12.30;;;9.17;;
40453;SDS011;26160;51.858;4.398;2023-04-02T05:18:35;12.10;;;9.33;;
40453;SDS011;26160;51.858;4.398;2023-04-02T05:21:21;12.50;;;8.37;;
40453;SDS011;26160;51.858;4.398;2023-04-02T05:23:52;10.50;;;8.30;;
40453;SDS011;26160;51.858;4.398;2023-04-02T05:26:46;10.80;;;7.87;;
40453;SDS011;26160;51.858;4.398;2023-04-02T05:29:29;14.43;;;8.93;;
40453;SDS011;26160;51.858;4.398;2023-04-02T05:32:04;14.20;;;8.43;;
40453;SDS011;26160;51.858;4.398;2023-04-02T05:34:38;10.40;;;8.40;;
40453;SDS011;26160;51.858;4.398;2023-04-02T05:37:11;12.07;;;8.33;;
40453;SDS011;26160;51.858;4.398;2023-04-02T05:39:45;13.90;;;8.83;;
40453;SDS011;26160;51.858;4.398;2023-04-02T05:42:27;14.67;;;9.10;;
40453;SDS011;26160;51.858;4.398;2023-04-02T05:45:05;13.87;;;8.50;;
40453;SDS011;26160;51.858;4.398;2023-04-02T05:52:35;11.47;;;7.73;;
40453;SDS011;26160;51.858;4.398;2023-04-02T05:57:42;9.70;;;7.03;;
40453;SDS011;26160;51.858;4.398;2023-04-02T06:03:12;10.17;;;6.77;;
40453;SDS011;26160;51.858;4.398;2023-04-02T06:06:02;9.23;;;6.60;;
40453;SDS011;26160;51.858;4.398;2023-04-02T06:08:39;9.67;;;6.50;;
40453;SDS011;26160;51.858;4.398;2023-04-02T06:11:12;11.30;;;6.03;;
40453;SDS011;26160;51.858;4.398;2023-04-02T06:16:12;10.27;;;7.17;;
40453;SDS011;26160;51.858;4.398;2023-04-02T06:18:40;10.97;;;6.40;;
40453;SDS011;26160;51.858;4.398;2023-04-02T06:21:07;8.50;;;6.03;;
40453;SDS011;26160;51.858;4.398;2023-04-02T06:23:38;11.93;;;6.93;;
40453;SDS011;26160;51.858;4.398;2023-04-02T06:29:07;10.98;;;6.20;;
40453;SDS011;26160;51.858;4.398;2023-04-02T06:31:55;10.80;;;6.53;;
40453;SDS011;26160;51.858;4.398;2023-04-02T06:34:24;10.67;;;6.87;;
40453;SDS011;26160;51.858;4.398;2023-04-02T06:37:36;9.17;;;6.20;;
40453;SDS011;26160;51.858;4.398;2023-04-02T06:39:42;10.50;;;6.70;;
40453;SDS011;26160;51.858;4.398;2023-04-02T06:45:25;8.30;;;6.27;;
40453;SDS011;26160;51.858;4.398;2023-04-02T06:47:56;10.23;;;6.10;;
40453;SDS011;26160;51.858;4.398;2023-04-02T06:50:40;11.67;;;6.93;;
40453;SDS011;26160;51.858;4.398;2023-04-02T06:53:29;10.33;;;6.40;;
40453;SDS011;26160;51.858;4.398;2023-04-02T06:56:20;10.73;;;6.23;;
40453;SDS011;26160;51.858;4.398;2023-04-02T06:59:00;11.30;;;5.40;;
40453;SDS011;26160;51.858;4.398;2023-04-02T07:01:29;14.10;;;6.03;;
40453;SDS011;26160;51.858;4.398;2023-04-02T07:04:17;8.17;;;5.73;;
40453;SDS011;26160;51.858;4.398;2023-04-02T07:06:45;8.87;;;4.80;;
40453;SDS011;26160;51.858;4.398;2023-04-02T07:09:12;8.80;;;5.20;;
40453;SDS011;26160;51.858;4.398;2023-04-02T07:11:38;9.50;;;5.67;;
40453;SDS011;26160;51.858;4.398;2023-04-02T07:14:05;7.30;;;4.63;;
40453;SDS011;26160;51.858;4.398;2023-04-02T07:16:31;17.60;;;5.73;;
40453;SDS011;26160;51.858;4.398;2023-04-02T07:18:59;7.83;;;4.70;;
40453;SDS011;26160;51.858;4.398;2023-04-02T07:21:25;6.57;;;4.47;;
40453;SDS011;26160;51.858;4.398;2023-04-02T07:23:52;10.17;;;4.77;;
40453;SDS011;26160;51.858;4.398;2023-04-02T07:26:20;8.10;;;4.37;;
40453;SDS011;26160;51.858;4.398;2023-04-02T07:28:52;13.48;;;4.75;;
40453;SDS011;26160;51.858;4.398;2023-04-02T07:31:20;12.73;;;4.53;;
40453;SDS011;26160;51.858;4.398;2023-04-02T07:33:49;9.40;;;4.47;;
40453;SDS011;26160;51.858;4.398;2023-04-02T07:36:17;8.40;;;5.03;;
40453;SDS011;26160;51.858;4.398;2023-04-02T07:38:45;9.20;;;4.67;;
40453;SDS011;26160;51.858;4.398;2023-04-02T07:41:14;7.30;;;4.10;;
40453;SDS011;26160;51.858;4.398;2023-04-02T07:43:40;6.70;;;4.47;;
40453;SDS011;26160;51.858;4.398;2023-04-02T07:46:08;7.73;;;4.07;;
40453;SDS011;26160;51.858;4.398;2023-04-02T07:48:36;7.77;;;3.97;;
40453;SDS011;26160;51.858;4.398;2023-04-02T07:51:02;8.50;;;4.13;;
40453;SDS011;26160;51.858;4.398;2023-04-02T07:56:03;6.10;;;3.90;;
40453;SDS011;26160;51.858;4.398;2023-04-02T07:58:30;7.97;;;3.60;;
40453;SDS011;26160;51.858;4.398;2023-04-02T08:00:57;9.20;;;3.97;;
40453;SDS011;26160;51.858;4.398;2023-04-02T08:03:25;5.73;;;4.10;;
40453;SDS011;26160;51.858;4.398;2023-04-02T08:05:55;5.87;;;3.93;;
40453;SDS011;26160;51.858;4.398;2023-04-02T08:08:23;7.23;;;4.03;;
40453;SDS011;26160;51.858;4.398;2023-04-02T08:10:50;7.27;;;3.67;;
40453;SDS011;26160;51.858;4.398;2023-04-02T08:13:17;5.10;;;3.47;;
40453;SDS011;26160;51.858;4.398;2023-04-02T08:15:44;7.17;;;3.70;;
40453;SDS011;26160;51.858;4.398;2023-04-02T08:18:11;7.73;;;4.10;;
40453;SDS011;26160;51.858;4.398;2023-04-02T08:20:37;6.00;;;3.73;;
40453;SDS011;26160;51.858;4.398;2023-04-02T08:23:03;7.20;;;4.33;;
40453;SDS011;26160;51.858;4.398;2023-04-02T08:25:31;4.97;;;4.10;;
40453;SDS011;26160;51.858;4.398;2023-04-02T08:27:57;7.67;;;3.77;;
40453;SDS011;26160;51.858;4.398;2023-04-02T08:30:25;8.03;;;4.07;;
40453;SDS011;26160;51.858;4.398;2023-04-02T08:32:51;6.97;;;4.07;;
40453;SDS011;26160;51.858;4.398;2023-04-02T08:35:17;7.57;;;3.70;;
40453;SDS011;26160;51.858;4.398;2023-04-02T08:37:44;8.17;;;3.43;;
40453;SDS011;26160;51.858;4.398;2023-04-02T08:40:15;5.63;;;3.27;;
40453;SDS011;26160;51.858;4.398;2023-04-02T08:46:30;4.57;;;3.20;;
40453;SDS011;26160;51.858;4.398;2023-04-02T08:48:26;5.77;;;3.33;;
40453;SDS011;26160;51.858;4.398;2023-04-02T08:50:57;4.07;;;2.90;;
40453;SDS011;26160;51.858;4.398;2023-04-02T08:53:26;5.73;;;3.17;;
40453;SDS011;26160;51.858;4.398;2023-04-02T08:56:03;7.23;;;3.43;;
40453;SDS011;26160;51.858;4.398;2023-04-02T08:58:43;6.13;;;2.70;;
40453;SDS011;26160;51.858;4.398;2023-04-02T09:03:56;4.88;;;2.42;;
40453;SDS011;26160;51.858;4.398;2023-04-02T09:06:23;6.07;;;2.50;;
40453;SDS011;26160;51.858;4.398;2023-04-02T09:08:52;4.47;;;2.47;;
40453;SDS011;26160;51.858;4.398;2023-04-02T09:13:46;6.20;;;2.80;;
40453;SDS011;26160;51.858;4.398;2023-04-02T09:16:17;5.37;;;2.47;;
40453;SDS011;26160;51.858;4.398;2023-04-02T09:18:47;3.67;;;2.57;;
40453;SDS011;26160;51.858;4.398;2023-04-02T09:21:20;4.07;;;2.80;;
40453;SDS011;26160;51.858;4.398;2023-04-02T09:23:56;7.10;;;2.80;;
40453;SDS011;26160;51.858;4.398;2023-04-02T09:26:25;4.23;;;2.50;;
40453;SDS011;26160;51.858;4.398;2023-04-02T09:32:05;8.27;;;4.40;;
40453;SDS011;26160;51.858;4.398;2023-04-02T09:37:41;9.27;;;5.17;;
40453;SDS011;26160;51.858;4.398;2023-04-02T09:40:31;8.30;;;3.10;;
40453;SDS011;26160;51.858;4.398;2023-04-02T09:43:07;4.27;;;2.43;;
40453;SDS011;26160;51.858;4.398;2023-04-02T09:45:37;4.60;;;2.23;;
40453;SDS011;26160;51.858;4.398;2023-04-02T09:48:22;6.27;;;2.53;;
40453;SDS011;26160;51.858;4.398;2023-04-02T09:51:11;6.93;;;2.87;;
40453;SDS011;26160;51.858;4.398;2023-04-02T09:53:43;4.70;;;2.77;;
40453;SDS011;26160;51.858;4.398;2023-04-02T09:58:42;5.87;;;2.50;;
40453;SDS011;26160;51.858;4.398;2023-04-02T10:01:26;8.30;;;3.07;;
40453;SDS011;26160;51.858;4.398;2023-04-02T10:03:58;6.50;;;2.90;;
40453;SDS011;26160;51.858;4.398;2023-04-02T10:06:27;7.07;;;2.90;;
40453;SDS011;26160;51.858;4.398;2023-04-02T10:08:56;9.40;;;2.90;;
40453;SDS011;26160;51.858;4.398;2023-04-02T10:11:26;7.97;;;3.33;;
40453;SDS011;26160;51.858;4.398;2023-04-02T10:13:59;6.03;;;3.03;;
40453;SDS011;26160;51.858;4.398;2023-04-02T10:16:32;8.53;;;3.30;;
40453;SDS011;26160;51.858;4.398;2023-04-02T10:19:10;7.47;;;3.47;;
40453;SDS011;26160;51.858;4.398;2023-04-02T10:21:39;4.63;;;2.90;;
40453;SDS011;26160;51.858;4.398;2023-04-02T10:24:11;5.03;;;2.57;;
40453;SDS011;26160;51.858;4.398;2023-04-02T10:32:00;4.25;;;2.65;;
40453;SDS011;26160;51.858;4.398;2023-04-02T10:34:34;6.87;;;2.80;;
40453;SDS011;26160;51.858;4.398;2023-04-02T10:40:00;7.47;;;3.90;;
40453;SDS011;26160;51.858;4.398;2023-04-02T10:42:44;5.37;;;2.73;;
40453;SDS011;26160;51.858;4.398;2023-04-02T10:50:56;6.23;;;2.70;;
40453;SDS011;26160;51.858;4.398;2023-04-02T10:54:00;5.88;;;3.00;;
40453;SDS011;26160;51.858;4.398;2023-04-02T10:56:30;5.83;;;2.47;;
40453;SDS011;26160;51.858;4.398;2023-04-02T10:59:01;6.17;;;2.80;;
40453;SDS011;26160;51.858;4.398;2023-04-02T11:01:35;5.37;;;2.90;;
40453;SDS011;26160;51.858;4.398;2023-04-02T11:04:07;6.53;;;2.80;;
40453;SDS011;26160;51.858;4.398;2023-04-02T11:07:14;5.10;;;2.40;;
40453;SDS011;26160;51.858;4.398;2023-04-02T11:09:42;7.37;;;2.67;;
40453;SDS011;26160;51.858;4.398;2023-04-02T11:12:17;5.17;;;2.70;;
40453;SDS011;26160;51.858;4.398;2023-04-02T11:15:05;5.93;;;2.70;;
40453;SDS011;26160;51.858;4.398;2023-04-02T11:17:41;5.23;;;2.60;;
40453;SDS011;26160;51.858;4.398;2023-04-02T11:23:20;3.67;;;2.13;;
40453;SDS011;26160;51.858;4.398;2023-04-02T11:25:47;5.80;;;2.37;;
40453;SDS011;26160;51.858;4.398;2023-04-02T11:28:18;6.67;;;2.40;;
40453;SDS011;26160;51.858;4.398;2023-04-02T11:30:49;4.47;;;2.20;;
40453;SDS011;26160;51.858;4.398;2023-04-02T11:36:00;5.17;;;2.30;;
40453;SDS011;26160;51.858;4.398;2023-04-02T11:44:26;4.33;;;2.20;;
40453;SDS011;26160;51.858;4.398;2023-04-02T11:46:52;5.07;;;2.00;;
40453;SDS011;26160;51.858;4.398;2023-04-02T11:52:36;3.40;;;1.77;;
40453;SDS011;26160;51.858;4.398;2023-04-02T11:55:43;5.60;;;2.00;;
40453;SDS011;26160;51.858;4.398;2023-04-02T11:58:18;3.57;;;1.53;;
40453;SDS011;26160;51.858;4.398;2023-04-02T12:09:20;7.55;;;2.47;;
40453;SDS011;26160;51.858;4.398;2023-04-02T12:11:51;6.20;;;1.80;;
40453;SDS011;26160;51.858;4.398;2023-04-02T12:17:17;4.78;;;1.35;;
40453;SDS011;26160;51.858;4.398;2023-04-02T12:19:53;6.55;;;1.67;;
40453;SDS011;26160;51.858;4.398;2023-04-02T12:22:32;7.65;;;1.88;;
40453;SDS011;26160;51.858;4.398;2023-04-02T12:25:05;3.85;;;1.65;;
40453;SDS011;26160;51.858;4.398;2023-04-02T12:27:46;7.25;;;1.88;;
40453;SDS011;26160;51.858;4.398;2023-04-02T12:30:20;10.32;;;1.67;;
40453;SDS011;26160;51.858;4.398;2023-04-02T12:32:47;6.72;;;2.22;;
40453;SDS011;26160;51.858;4.398;2023-04-02T12:35:28;5.85;;;1.75;;
40453;SDS011;26160;51.858;4.398;2023-04-02T12:37:57;6.40;;;1.65;;
40453;SDS011;26160;51.858;4.398;2023-04-02T12:40:24;3.95;;;1.70;;
40453;SDS011;26160;51.858;4.398;2023-04-02T12:42:51;5.80;;;1.48;;
40453;SDS011;26160;51.858;4.398;2023-04-02T12:45:24;5.28;;;1.67;;
40453;SDS011;26160;51.858;4.398;2023-04-02T12:47:56;6.22;;;1.80;;
40453;SDS011;26160;51.858;4.398;2023-04-02T12:50:22;5.07;;;1.60;;
40453;SDS011;26160;51.858;4.398;2023-04-02T12:52:51;5.65;;;1.60;;
40453;SDS011;26160;51.858;4.398;2023-04-02T12:55:21;3.17;;;1.55;;
40453;SDS011;26160;51.858;4.398;2023-04-02T12:57:53;4.55;;;1.67;;
40453;SDS011;26160;51.858;4.398;2023-04-02T13:05:47;4.85;;;1.85;;
40453;SDS011;26160;51.858;4.398;2023-04-02T13:08:27;3.50;;;1.50;;
40453;SDS011;26160;51.858;4.398;2023-04-02T13:10:59;4.55;;;1.80;;
40453;SDS011;26160;51.858;4.398;2023-04-02T13:13:27;4.25;;;1.20;;
40453;SDS011;26160;51.858;4.398;2023-04-02T13:18:30;3.00;;;1.60;;
40453;SDS011;26160;51.858;4.398;2023-04-02T13:20:58;4.65;;;1.60;;
40453;SDS011;26160;51.858;4.398;2023-04-02T13:23:43;5.03;;;1.60;;
40453;SDS011;26160;51.858;4.398;2023-04-02T13:26:20;7.45;;;1.75;;
40453;SDS011;26160;51.858;4.398;2023-04-02T13:31:24;2.92;;;1.40;;
40453;SDS011;26160;51.858;4.398;2023-04-02T13:33:50;3.70;;;1.38;;
40453;SDS011;26160;51.858;4.398;2023-04-02T13:36:16;5.50;;;1.70;;
40453;SDS011;26160;51.858;4.398;2023-04-02T13:38:43;5.95;;;1.77;;
40453;SDS011;26160;51.858;4.398;2023-04-02T13:41:19;3.80;;;1.60;;
40453;SDS011;26160;51.858;4.398;2023-04-02T13:43:48;4.40;;;1.70;;
40453;SDS011;26160;51.858;4.398;2023-04-02T13:46:23;4.18;;;1.52;;
40453;SDS011;26160;51.858;4.398;2023-04-02T13:48:57;6.55;;;1.90;;
40453;SDS011;26160;51.858;4.398;2023-04-02T13:51:30;6.75;;;1.95;;
40453;SDS011;26160;51.858;4.398;2023-04-02T13:54:09;3.35;;;1.40;;
40453;SDS011;26160;51.858;4.398;2023-04-02T13:56:43;3.50;;;1.48;;
40453;SDS011;26160;51.858;4.398;2023-04-02T13:59:09;2.53;;;1.20;;
40453;SDS011;26160;51.858;4.398;2023-04-02T14:01:39;3.85;;;1.42;;
40453;SDS011;26160;51.858;4.398;2023-04-02T14:04:05;5.63;;;1.40;;
40453;SDS011;26160;51.858;4.398;2023-04-02T14:09:27;5.85;;;1.38;;
40453;SDS011;26160;51.858;4.398;2023-04-02T14:12:08;4.03;;;1.30;;
40453;SDS011;26160;51.858;4.398;2023-04-02T14:26:16;5.47;;;1.52;;
40453;SDS011;26160;51.858;4.398;2023-04-02T14:32:13;3.50;;;1.35;;
40453;SDS011;26160;51.858;4.398;2023-04-02T14:45:04;2.78;;;1.50;;
40453;SDS011;26160;51.858;4.398;2023-04-02T14:47:53;6.75;;;1.58;;
40453;SDS011;26160;51.858;4.398;2023-04-02T14:50:29;4.30;;;1.55;;
40453;SDS011;26160;51.858;4.398;2023-04-02T14:53:07;3.67;;;1.77;;
40453;SDS011;26160;51.858;4.398;2023-04-02T14:56:04;3.58;;;1.38;;
40453;SDS011;26160;51.858;4.398;2023-04-02T14:58:37;6.75;;;1.90;;
40453;SDS011;26160;51.858;4.398;2023-04-02T15:01:16;4.88;;;1.75;;
40453;SDS011;26160;51.858;4.398;2023-04-02T15:06:32;3.97;;;1.40;;
40453;SDS011;26160;51.858;4.398;2023-04-02T15:09:03;5.50;;;1.73;;
40453;SDS011;26160;51.858;4.398;2023-04-02T15:11:34;4.60;;;1.25;;
40453;SDS011;26160;51.858;4.398;2023-04-02T15:16:53;3.28;;;1.55;;
40453;SDS011;26160;51.858;4.398;2023-04-02T15:19:19;3.90;;;1.52;;
40453;SDS011;26160;51.858;4.398;2023-04-02T15:25:00;4.97;;;1.98;;
40453;SDS011;26160;51.858;4.398;2023-04-02T15:30:33;5.90;;;1.42;;
40453;SDS011;26160;51.858;4.398;2023-04-02T15:35:48;5.78;;;1.35;;
40453;SDS011;26160;51.858;4.398;2023-04-02T15:38:42;2.45;;;1.38;;
40453;SDS011;26160;51.858;4.398;2023-04-02T15:44:05;4.88;;;1.42;;
40453;SDS011;26160;51.858;4.398;2023-04-02T15:46:43;4.45;;;1.35;;
40453;SDS011;26160;51.858;4.398;2023-04-02T15:52:16;5.28;;;1.73;;
40453;SDS011;26160;51.858;4.398;2023-04-02T15:57:54;5.43;;;1.52;;
40453;SDS011;26160;51.858;4.398;2023-04-02T16:00:46;8.02;;;1.63;;
40453;SDS011;26160;51.858;4.398;2023-04-02T16:09:42;4.25;;;1.42;;
40453;SDS011;26160;51.858;4.398;2023-04-02T16:12:16;7.47;;;1.70;;
40453;SDS011;26160;51.858;4.398;2023-04-02T16:14:45;4.07;;;1.80;;
40453;SDS011;26160;51.858;4.398;2023-04-02T16:17:18;2.08;;;1.33;;
40453;SDS011;26160;51.858;4.398;2023-04-02T16:19:52;5.88;;;1.63;;
40453;SDS011;26160;51.858;4.398;2023-04-02T16:22:23;6.82;;;1.40;;
40453;SDS011;26160;51.858;4.398;2023-04-02T16:24:59;7.05;;;1.80;;
40453;SDS011;26160;51.858;4.398;2023-04-02T16:27:57;4.30;;;1.63;;
40453;SDS011;26160;51.858;4.398;2023-04-02T16:33:32;4.78;;;1.80;;
40453;SDS011;26160;51.858;4.398;2023-04-02T16:41:52;5.10;;;1.60;;
40453;SDS011;26160;51.858;4.398;2023-04-02T16:54:58;4.90;;;1.50;;
40453;SDS011;26160;51.858;4.398;2023-04-02T17:00:27;5.93;;;1.98;;
40453;SDS011;26160;51.858;4.398;2023-04-02T17:09:09;3.30;;;1.70;;
40453;SDS011;26160;51.858;4.398;2023-04-02T17:11:47;3.67;;;1.60;;
40453;SDS011;26160;51.858;4.398;2023-04-02T17:14:24;3.90;;;2.03;;
40453;SDS011;26160;51.858;4.398;2023-04-02T17:16:58;3.63;;;1.63;;
40453;SDS011;26160;51.858;4.398;2023-04-02T17:19:27;2.77;;;1.40;;
40453;SDS011;26160;51.858;4.398;2023-04-02T17:22:00;4.20;;;1.77;;
40453;SDS011;26160;51.858;4.398;2023-04-02T17:24:29;4.30;;;1.47;;
40453;SDS011;26160;51.858;4.398;2023-04-02T17:27:11;3.60;;;1.60;;
40453;SDS011;26160;51.858;4.398;2023-04-02T17:29:47;5.30;;;1.90;;
40453;SDS011;26160;51.858;4.398;2023-04-02T17:32:20;3.50;;;1.40;;
40453;SDS011;26160;51.858;4.398;2023-04-02T17:34:50;3.80;;;1.37;;
40453;SDS011;26160;51.858;4.398;2023-04-02T17:38:20;5.97;;;1.77;;
40453;SDS011;26160;51.858;4.398;2023-04-02T17:40:31;4.80;;;1.43;;
40453;SDS011;26160;51.858;4.398;2023-04-02T17:43:11;3.90;;;1.40;;
40453;SDS011;26160;51.858;4.398;2023-04-02T17:46:01;3.43;;;1.40;;
40453;SDS011;26160;51.858;4.398;2023-04-02T17:48:41;4.63;;;1.80;;
40453;SDS011;26160;51.858;4.398;2023-04-02T17:51:17;4.90;;;1.37;;
40453;SDS011;26160;51.858;4.398;2023-04-02T17:54:19;2.53;;;1.20;;
40453;SDS011;26160;51.858;4.398;2023-04-02T17:57:05;3.70;;;1.67;;
40453;SDS011;26160;51.858;4.398;2023-04-02T18:07:23;4.60;;;1.60;;
40453;SDS011;26160;51.858;4.398;2023-04-02T18:15:52;4.60;;;1.90;;
40453;SDS011;26160;51.858;4.398;2023-04-02T18:18:32;5.73;;;1.67;;
40453;SDS011;26160;51.858;4.398;2023-04-02T18:26:36;3.37;;;1.40;;
40453;SDS011;26160;51.858;4.398;2023-04-02T18:29:32;5.43;;;1.83;;
40453;SDS011;26160;51.858;4.398;2023-04-02T18:32:17;6.43;;;2.30;;
40453;SDS011;26160;51.858;4.398;2023-04-02T18:38:10;4.57;;;1.53;;
40453;SDS011;26160;51.858;4.398;2023-04-02T18:43:58;3.70;;;1.23;;
40453;SDS011;26160;51.858;4.398;2023-04-02T18:51:57;4.20;;;1.70;;
40453;SDS011;26160;51.858;4.398;2023-04-02T18:54:45;4.23;;;1.87;;
40453;SDS011;26160;51.858;4.398;2023-04-02T18:57:23;5.53;;;1.70;;
40453;SDS011;26160;51.858;4.398;2023-04-02T19:00:15;6.37;;;2.00;;
40453;SDS011;26160;51.858;4.398;2023-04-02T19:02:56;5.97;;;1.83;;
40453;SDS011;26160;51.858;4.398;2023-04-02T19:08:01;5.27;;;1.60;;
40453;SDS011;26160;51.858;4.398;2023-04-02T19:10:53;5.63;;;1.93;;
40453;SDS011;26160;51.858;4.398;2023-04-02T19:13:24;7.17;;;2.17;;
40453;SDS011;26160;51.858;4.398;2023-04-02T19:19:20;5.27;;;2.03;;
40453;SDS011;26160;51.858;4.398;2023-04-02T19:23:55;6.07;;;1.70;;
40453;SDS011;26160;51.858;4.398;2023-04-02T19:26:50;7.00;;;1.93;;
40453;SDS011;26160;51.858;4.398;2023-04-02T19:32:11;4.70;;;1.73;;
40453;SDS011;26160;51.858;4.398;2023-04-02T19:35:15;4.23;;;1.63;;
40453;SDS011;26160;51.858;4.398;2023-04-02T19:37:50;5.47;;;1.70;;
40453;SDS011;26160;51.858;4.398;2023-04-02T19:40:36;4.70;;;1.60;;
40453;SDS011;26160;51.858;4.398;2023-04-02T19:43:07;6.43;;;2.30;;
40453;SDS011;26160;51.858;4.398;2023-04-02T19:45:36;6.77;;;2.50;;
40453;SDS011;26160;51.858;4.398;2023-04-02T19:48:26;4.13;;;2.03;;
40453;SDS011;26160;51.858;4.398;2023-04-02T19:50:59;5.28;;;2.20;;
40453;SDS011;26160;51.858;4.398;2023-04-02T19:53:26;5.87;;;1.97;;
40453;SDS011;26160;51.858;4.398;2023-04-02T19:55:52;4.20;;;1.70;;
40453;SDS011;26160;51.858;4.398;2023-04-02T19:58:26;8.57;;;2.20;;
40453;SDS011;26160;51.858;4.398;2023-04-02T20:00:54;4.70;;;1.60;;
40453;SDS011;26160;51.858;4.398;2023-04-02T20:03:21;4.53;;;1.90;;
40453;SDS011;26160;51.858;4.398;2023-04-02T20:05:48;5.33;;;2.43;;